Time,TemperatureF,DewpointF,PressureIn,WindDirection,WindDirectionDegrees,WindSpeedMPH,WindSpeedGustMPH,Humidity,HourlyPrecipIn,Conditions,Clouds,dailyrainin,SoftwareType,DateUTC
2013-01-18 00:02:00,9.0,3.0,-100.00,SSE,155,0.0,4.0,77,0.00,,,0.00,,2013-01-18 06:02:00,
2013-01-18 00:12:00,9.0,3.0,-100.00,SSE,155,0.0,4.0,77,0.00,,,0.00,,2013-01-18 06:12:00,
2013-01-18 00:22:00,9.0,3.0,-100.00,SSE,155,0.0,4.0,77,0.00,,,0.00,,2013-01-18 06:22:00,
2013-01-18 00:53:00,9.0,3.0,-100.00,SE,140,2.0,3.0,76,0.00,,,0.00,,2013-01-18 06:53:00,
2013-01-18 01:02:00,9.0,3.0,-100.00,SE,140,2.0,3.0,76,0.00,,,0.00,,2013-01-18 07:02:00,
2013-01-18 01:12:00,9.0,3.0,-100.00,SE,140,2.0,3.0,76,0.00,,,0.00,,2013-01-18 07:12:00,
2013-01-18 01:22:00,9.0,3.0,-100.00,SE,140,2.0,3.0,76,0.00,,,0.00,,2013-01-18 07:22:00,
2013-01-18 01:52:00,8.0,3.0,-100.00,SE,132,4.0,5.0,79,0.00,,,0.00,,2013-01-18 07:52:00,
2013-01-18 02:02:00,8.0,3.0,-100.00,SE,132,4.0,5.0,79,0.00,,,0.00,,2013-01-18 08:02:00,
2013-01-18 02:12:00,8.0,3.0,-100.00,SE,132,4.0,5.0,79,0.00,,,0.00,,2013-01-18 08:12:00,
2013-01-18 02:22:00,8.0,3.0,-100.00,SE,132,4.0,5.0,79,0.00,,,0.00,,2013-01-18 08:22:00,
2013-01-18 02:53:00,11.0,6.0,-100.00,ENE,75,0.0,4.0,80,0.00,,,0.00,,2013-01-18 08:53:00,
2013-01-18 03:02:00,11.0,6.0,-100.00,ENE,75,0.0,4.0,80,0.00,,,0.00,,2013-01-18 09:02:00,
2013-01-18 03:12:00,11.0,6.0,-100.00,ENE,75,0.0,4.0,80,0.00,,,0.00,,2013-01-18 09:12:00,
2013-01-18 03:22:00,11.0,6.0,-100.00,ENE,75,0.0,4.0,80,0.00,,,0.00,,2013-01-18 09:22:00,
2013-01-18 03:53:00,12.0,8.0,-100.00,SSW,195,4.0,6.0,84,0.00,,,0.00,,2013-01-18 09:53:00,
2013-01-18 04:02:00,12.0,8.0,-100.00,SSW,195,4.0,6.0,84,0.00,,,0.00,,2013-01-18 10:02:00,
2013-01-18 04:12:00,12.0,8.0,-100.00,SSW,195,4.0,6.0,84,0.00,,,0.00,,2013-01-18 10:12:00,
2013-01-18 04:22:00,12.0,8.0,-100.00,SSW,195,4.0,6.0,84,0.00,,,0.00,,2013-01-18 10:22:00,
2013-01-18 04:53:00,13.0,8.0,-100.00,South,171,5.0,7.0,79,0.00,,,0.00,,2013-01-18 10:53:00,
2013-01-18 05:02:00,13.0,8.0,-100.00,South,171,5.0,7.0,79,0.00,,,0.00,,2013-01-18 11:02:00,
2013-01-18 05:12:00,13.0,8.0,-100.00,South,171,5.0,7.0,79,0.00,,,0.00,,2013-01-18 11:12:00,
2013-01-18 05:23:00,13.0,8.0,-100.00,South,171,5.0,7.0,79,0.00,,,0.00,,2013-01-18 11:23:00,
2013-01-18 05:53:00,15.0,9.0,-100.00,SSE,150,7.0,9.0,76,0.00,,,0.00,,2013-01-18 11:53:00,
2013-01-18 06:03:00,15.0,9.0,-100.00,SSE,150,7.0,9.0,76,0.00,,,0.00,,2013-01-18 12:03:00,
2013-01-18 06:12:00,15.0,9.0,-100.00,SSE,150,7.0,9.0,76,0.00,,,0.00,,2013-01-18 12:12:00,
2013-01-18 06:22:00,15.0,9.0,-100.00,SSE,150,7.0,9.0,76,0.00,,,0.00,,2013-01-18 12:22:00,
2013-01-18 06:53:00,15.0,12.0,-100.00,SSE,163,7.0,10.0,86,0.00,,,0.00,,2013-01-18 12:53:00,
2013-01-18 07:03:00,15.0,12.0,-100.00,SSE,163,7.0,10.0,86,0.00,,,0.00,,2013-01-18 13:03:00,
2013-01-18 07:12:00,15.0,12.0,-100.00,SSE,163,7.0,10.0,86,0.00,,,0.00,,2013-01-18 13:12:00,
2013-01-18 07:23:00,15.0,12.0,-100.00,SSE,163,7.0,10.0,86,0.00,,,0.00,,2013-01-18 13:23:00,
2013-01-18 07:53:00,16.0,13.0,-100.00,SSE,157,8.0,13.0,86,0.00,,,0.00,,2013-01-18 13:53:00,
2013-01-18 08:03:00,16.0,13.0,-100.00,SSE,157,8.0,13.0,86,0.00,,,0.00,,2013-01-18 14:03:00,
2013-01-18 08:12:00,16.0,13.0,-100.00,SSE,157,8.0,13.0,86,0.00,,,0.00,,2013-01-18 14:12:00,
2013-01-18 08:22:00,16.0,13.0,-100.00,SSE,157,8.0,13.0,86,0.00,,,0.00,,2013-01-18 14:22:00,
2013-01-18 08:53:00,18.0,12.0,-100.00,SSE,167,14.0,19.0,77,0.00,,,0.00,,2013-01-18 14:53:00,
2013-01-18 09:03:00,18.0,12.0,-100.00,SSE,167,14.0,19.0,77,0.00,,,0.00,,2013-01-18 15:03:00,
2013-01-18 09:12:00,18.0,12.0,-100.00,SSE,167,14.0,19.0,77,0.00,,,0.00,,2013-01-18 15:12:00,
2013-01-18 09:23:00,18.0,12.0,-100.00,SSE,167,14.0,19.0,77,0.00,,,0.00,,2013-01-18 15:23:00,
2013-01-18 09:54:00,23.0,16.0,-100.00,South,176,17.0,25.0,74,0.00,,,0.00,,2013-01-18 15:54:00,
2013-01-18 10:03:00,23.0,16.0,-100.00,South,176,17.0,25.0,74,0.00,,,0.00,,2013-01-18 16:03:00,
2013-01-18 10:12:00,23.0,16.0,-100.00,South,176,17.0,25.0,74,0.00,,,0.00,,2013-01-18 16:12:00,
2013-01-18 10:23:00,23.0,16.0,-100.00,South,176,17.0,25.0,74,0.00,,,0.00,,2013-01-18 16:23:00,
2013-01-18 10:53:00,29.0,21.0,-100.00,South,190,19.0,30.0,72,0.00,,,0.00,,2013-01-18 16:53:00,
2013-01-18 11:03:00,29.0,21.0,-100.00,South,190,19.0,30.0,72,0.00,,,0.00,,2013-01-18 17:03:00,
2013-01-18 11:13:00,29.0,21.0,-100.00,South,190,19.0,30.0,72,0.00,,,0.00,,2013-01-18 17:13:00,
2013-01-18 11:23:00,29.0,21.0,-100.00,South,190,19.0,30.0,72,0.00,,,0.00,,2013-01-18 17:23:00,
2013-01-18 11:53:00,32.0,23.0,-100.00,SSW,202,21.0,34.0,69,0.00,,,0.00,,2013-01-18 17:53:00,
2013-01-18 12:03:00,32.0,23.0,-100.00,SSW,202,21.0,34.0,69,0.00,,,0.00,,2013-01-18 18:03:00,
2013-01-18 12:13:00,32.0,23.0,-100.00,SSW,202,21.0,34.0,69,0.00,,,0.00,,2013-01-18 18:13:00,
2013-01-18 12:23:00,32.0,23.0,-100.00,SSW,202,21.0,34.0,69,0.00,,,0.00,,2013-01-18 18:23:00,
2013-01-18 12:53:00,37.0,26.0,-100.00,SSW,209,19.0,36.0,65,0.00,,,0.00,,2013-01-18 18:53:00,
2013-01-18 13:03:00,37.0,26.0,-100.00,SSW,209,19.0,36.0,65,0.00,,,0.00,,2013-01-18 19:03:00,
2013-01-18 13:12:00,37.0,26.0,-100.00,SSW,209,19.0,36.0,65,0.00,,,0.00,,2013-01-18 19:12:00,
2013-01-18 13:22:00,37.0,26.0,-100.00,SSW,209,19.0,36.0,65,0.00,,,0.00,,2013-01-18 19:22:00,
2013-01-18 13:53:00,39.0,27.0,-100.00,SSW,213,18.0,32.0,63,0.00,,,0.00,,2013-01-18 19:53:00,
2013-01-18 14:03:00,39.0,27.0,-100.00,SSW,213,18.0,32.0,63,0.00,,,0.00,,2013-01-18 20:03:00,
2013-01-18 14:13:00,39.0,27.0,-100.00,SSW,213,18.0,32.0,63,0.00,,,0.00,,2013-01-18 20:13:00,
2013-01-18 14:23:00,39.0,27.0,-100.00,SSW,213,18.0,32.0,63,0.00,,,0.00,,2013-01-18 20:23:00,
2013-01-18 14:53:00,40.0,29.0,-100.00,SSW,210,16.0,30.0,64,0.00,,,0.00,,2013-01-18 20:53:00,
2013-01-18 15:03:00,40.0,29.0,-100.00,SSW,210,16.0,30.0,64,0.00,,,0.00,,2013-01-18 21:03:00,
2013-01-18 15:13:00,40.0,29.0,-100.00,SSW,210,16.0,30.0,64,0.00,,,0.00,,2013-01-18 21:13:00,
2013-01-18 15:23:00,40.0,29.0,-100.00,SSW,210,16.0,30.0,64,0.00,,,0.00,,2013-01-18 21:23:00,
2013-01-18 15:53:00,40.0,30.0,-100.00,SW,214,14.0,26.0,67,0.00,,,0.00,,2013-01-18 21:53:00,
2013-01-18 16:03:00,40.0,30.0,-100.00,SW,214,14.0,26.0,67,0.00,,,0.00,,2013-01-18 22:03:00,
2013-01-18 16:12:00,40.0,30.0,-100.00,SW,214,14.0,26.0,67,0.00,,,0.00,,2013-01-18 22:12:00,
2013-01-18 16:22:00,40.0,30.0,-100.00,SW,214,14.0,26.0,67,0.00,,,0.00,,2013-01-18 22:22:00,
2013-01-18 16:53:00,39.0,30.0,-100.00,SW,218,13.0,25.0,69,0.00,,,0.00,,2013-01-18 22:53:00,
2013-01-18 17:03:00,39.0,30.0,-100.00,SW,218,13.0,25.0,69,0.00,,,0.00,,2013-01-18 23:03:00,
2013-01-18 17:12:00,39.0,30.0,-100.00,SW,218,13.0,25.0,69,0.00,,,0.00,,2013-01-18 23:12:00,
2013-01-18 17:22:00,39.0,30.0,-100.00,SW,218,13.0,25.0,69,0.00,,,0.00,,2013-01-18 23:22:00,
2013-01-18 17:53:00,37.0,30.0,-100.00,SSW,208,10.0,23.0,76,0.00,,,0.00,,2013-01-18 23:53:00,
2013-01-18 18:02:00,37.0,30.0,-100.00,SSW,208,10.0,23.0,76,0.00,,,0.00,,2013-01-19 00:02:00,
2013-01-18 18:12:00,37.0,30.0,-100.00,SSW,208,10.0,23.0,76,0.00,,,0.00,,2013-01-19 00:12:00,
2013-01-18 18:22:00,37.0,30.0,-100.00,SSW,208,10.0,23.0,76,0.00,,,0.00,,2013-01-19 00:22:00,
2013-01-18 18:53:00,37.0,31.0,-100.00,SSW,203,10.0,16.0,78,0.00,,,0.00,,2013-01-19 00:53:00,
2013-01-18 19:02:00,37.0,31.0,-100.00,SSW,203,10.0,16.0,78,0.00,,,0.00,,2013-01-19 01:02:00,
2013-01-18 19:12:00,37.0,31.0,-100.00,SSW,203,10.0,16.0,78,0.00,,,0.00,,2013-01-19 01:12:00,
2013-01-18 19:22:00,37.0,31.0,-100.00,SSW,203,10.0,16.0,78,0.00,,,0.00,,2013-01-19 01:22:00,
2013-01-18 19:53:00,37.0,31.0,-100.00,SSW,209,10.0,16.0,79,0.00,,,0.00,,2013-01-19 01:53:00,
2013-01-18 20:02:00,37.0,31.0,-100.00,SSW,209,10.0,16.0,79,0.00,,,0.00,,2013-01-19 02:02:00,
2013-01-18 20:12:00,37.0,31.0,-100.00,SSW,209,10.0,16.0,79,0.00,,,0.00,,2013-01-19 02:12:00,
2013-01-18 20:22:00,37.0,31.0,-100.00,SSW,209,10.0,16.0,79,0.00,,,0.00,,2013-01-19 02:22:00,
2013-01-18 20:53:00,37.0,32.0,-100.00,SSW,212,8.0,17.0,81,0.00,,,0.00,,2013-01-19 02:53:00,
2013-01-18 21:03:00,37.0,32.0,-100.00,SSW,212,8.0,17.0,81,0.00,,,0.00,,2013-01-19 03:03:00,
2013-01-18 21:12:00,37.0,32.0,-100.00,SSW,212,8.0,17.0,81,0.00,,,0.00,,2013-01-19 03:12:00,
2013-01-18 21:22:00,37.0,32.0,-100.00,SSW,212,8.0,17.0,81,0.00,,,0.00,,2013-01-19 03:22:00,
2013-01-18 21:53:00,37.0,31.0,-100.00,SW,214,8.0,16.0,79,0.00,,,0.00,,2013-01-19 03:53:00,
2013-01-18 22:02:00,37.0,31.0,-100.00,SW,214,8.0,16.0,79,0.00,,,0.00,,2013-01-19 04:02:00,
2013-01-18 22:12:00,37.0,31.0,-100.00,SW,214,8.0,16.0,79,0.00,,,0.00,,2013-01-19 04:12:00,
2013-01-18 22:22:00,37.0,31.0,-100.00,SW,214,8.0,16.0,79,0.00,,,0.00,,2013-01-19 04:22:00,
2013-01-18 22:53:00,36.0,31.0,-100.00,SW,215,6.0,13.0,81,0.00,,,0.00,,2013-01-19 04:53:00,
2013-01-18 23:03:00,36.0,31.0,-100.00,SW,215,6.0,13.0,81,0.00,,,0.00,,2013-01-19 05:03:00,
2013-01-18 23:12:00,36.0,31.0,-100.00,SW,215,6.0,13.0,81,0.00,,,0.00,,2013-01-19 05:12:00,
2013-01-18 23:23:00,36.0,31.0,-100.00,SW,215,6.0,13.0,81,0.00,,,0.00,,2013-01-19 05:23:00,
2013-01-18 23:53:00,36.0,31.0,-100.00,SSW,212,5.0,11.0,82,0.00,,,0.00,,2013-01-19 05:53:00,